CPX204 Details

Departure: Liège Airport (EBLG) at 1130 UTC
Arrival: Washington Dulles International Airport (KIAD) at 2000 UTC
Notes:


Current Weather Information
EBLG 171720Z 21012KT 9999 -RA FEW012 BKN015 19/17 Q1009 NOSIG
KIAD 171652Z 24005KT 10SM FEW040 SCT060 BKN090 BKN250 31/22 A3001 RMK AO2 SLP157 CB DSNT NE T03060222